aviador You're here:

SAZN Decoded Metar

NEUQUEN in ARGENTINA
Report Time2017-10-22 06:00:00
UTC Time2017-10-22 06:31:14
Flight Rules vfr VFR
Wind020° at 05 kt
W.Decomp.*RWY 09: 1.4 kt HW 4.8 kt LCW
W.Rank020° ranks 13
Current wind is below 020° avg. (6.5)
Visibility9999 m
Phenomena:N/A
Clouds:N/A
Expected CloudBase > 2,400 ft AGL from Temp-Dew spread
CeilingNone
Temp10°C (ISA -3)
Dew Point04°C (67% RH)
AAT6.9°C
QNH1023 hPa
Density Alt279 ft
Elevation889 ft
Report Wrong Elevation
Raw Report
METAR SAZN 220600Z 02005KT CAVOK 10/04 Q1023=

Extra information for SAZN:More info

Metar Taf Metar & Taf Last 4 Metars F.Rules Stats Wind Profile Meteogram Temp Stats Airport Information Weather charts Add Link Nearby VenuesMetar ALERT Operation Metar Decoded Social comments